PWSweather.com
Personal Weather Stations
Station Observations
KMDSOLOM1
solomons, Solomons, MD 20688

solomonsSolomons, MD 20688

Lat: 38.32, Lon: -76.45

Elevation: 5

Station Type:

http://www.act-us.info/weather

High Low Average
Temperature 65.2°F18.4°C 56.2°F13.4°C 60.7°F15.9°C
Dew Point 55.6°F13.1°C 42.6°F5.9°C 50.0°F10.0°C
Winds 21.0 mph 33.8 kmh Calm Calm 8.0 mph ESE12.9 kmh ESE
Wind Gusts 21.0 mph33.8 kmh 1.0 mph1.6 kmh 11.0 mph17.7 kmh
Humidity 90% 51% 69%
Pressure 30.03 in1016.9 mb 29.92 in1013.2 mb -
Precipitation 0.00 in0.0 mm - -
Hour Temp Dew Point Humidity Winds Wind Gusts Pressure Precip Precip Rate Daily Precip Total
12:00 AM 60.5°F15.8°C 43.3°F6.3°C 53% 10.0 mph S16.1 kmh S 12.0 mph19.3 kmh 29.95 in1014.2 mb 0.00 in0.0 mm 0.00 in0.0 mm 0.00 in0.0 mm
12:05 AM 60.5°F15.8°C 43.3°F6.3°C 53% 6.0 mph SSE9.7 kmh SSE 12.0 mph19.3 kmh 29.95 in1014.2 mb 0.00 in0.0 mm 0.00 in0.0 mm 0.00 in0.0 mm
12:10 AM 60.5°F15.8°C 43.3°F6.3°C 53% 1.0 mph S1.6 kmh S 1.0 mph1.6 kmh 29.95 in1014.2 mb 0.00 in0.0 mm 0.00 in0.0 mm 0.00 in0.0 mm
12:15 AM 60.5°F15.8°C 43.3°F6.3°C 53% 12.0 mph SE19.3 kmh SE 12.0 mph19.3 kmh 29.94 in1013.9 mb 0.00 in0.0 mm 0.00 in0.0 mm 0.00 in0.0 mm
12:20 AM 60.5°F15.8°C 43.3°F6.3°C 53% 5.0 mph SSE8.0 kmh SSE 12.0 mph19.3 kmh 29.94 in1013.9 mb 0.00 in0.0 mm 0.00 in0.0 mm 0.00 in0.0 mm
12:25 AM 60.4°F15.8°C 43.2°F6.2°C 53% 9.0 mph S14.5 kmh S 9.0 mph14.5 kmh 29.94 in1013.9 mb 0.00 in0.0 mm 0.00 in0.0 mm 0.00 in0.0 mm
12:30 AM 60.5°F15.8°C 43.3°F6.3°C 53% 8.0 mph SSE12.9 kmh SSE 13.0 mph20.9 kmh 29.94 in1013.9 mb 0.00 in0.0 mm 0.00 in0.0 mm 0.00 in0.0 mm
12:35 AM 60.5°F15.8°C 43.3°F6.3°C 53% 5.0 mph SSE8.0 kmh SSE 14.0 mph22.5 kmh 29.94 in1013.9 mb 0.00 in0.0 mm 0.00 in0.0 mm 0.00 in0.0 mm
12:40 AM 60.6°F15.9°C 43.4°F6.3°C 53% 5.0 mph SSE8.0 kmh SSE 5.0 mph8.0 kmh 29.94 in1013.9 mb 0.00 in0.0 mm 0.00 in0.0 mm 0.00 in0.0 mm
12:45 AM 60.5°F15.8°C 43.3°F6.3°C 53% 7.0 mph SSE11.3 kmh SSE 14.0 mph22.5 kmh 29.94 in1013.9 mb 0.00 in0.0 mm 0.00 in0.0 mm 0.00 in0.0 mm
12:50 AM 60.6°F15.9°C 43.4°F6.3°C 53% 9.0 mph SE14.5 kmh SE 21.0 mph33.8 kmh 29.93 in1013.5 mb 0.00 in0.0 mm 0.00 in0.0 mm 0.00 in0.0 mm
12:55 AM 60.7°F15.9°C 43.0°F6.1°C 52% 9.0 mph S14.5 kmh S 12.0 mph19.3 kmh 29.93 in1013.5 mb 0.00 in0.0 mm 0.00 in0.0 mm 0.00 in0.0 mm
01:00 AM 60.8°F16.0°C 42.6°F5.9°C 51% 16.0 mph SE25.7 kmh SE 16.0 mph25.7 kmh 29.93 in1013.5 mb 0.00 in0.0 mm 0.00 in0.0 mm 0.00 in0.0 mm
01:05 AM 60.9°F16.1°C 43.2°F6.2°C 52% 10.0 mph SE16.1 kmh SE 19.0 mph30.6 kmh 29.93 in1013.5 mb 0.00 in0.0 mm 0.00 in0.0 mm 0.00 in0.0 mm
01:10 AM 61.0°F16.1°C 42.8°F6.0°C 51% 6.0 mph ESE9.7 kmh ESE 10.0 mph16.1 kmh 29.93 in1013.5 mb 0.00 in0.0 mm 0.00 in0.0 mm 0.00 in0.0 mm
01:15 AM 61.0°F16.1°C 42.8°F6.0°C 51% 9.0 mph SSE14.5 kmh SSE 15.0 mph24.1 kmh 29.93 in1013.5 mb 0.00 in0.0 mm 0.00 in0.0 mm 0.00 in0.0 mm
01:20 AM 61.0°F16.1°C 42.8°F6.0°C 51% 5.0 mph S8.0 kmh S 15.0 mph24.1 kmh 29.92 in1013.2 mb 0.00 in0.0 mm 0.00 in0.0 mm 0.00 in0.0 mm
01:25 AM 61.0°F16.1°C 42.8°F6.0°C 51% 6.0 mph S9.7 kmh S 7.0 mph11.3 kmh 29.92 in1013.2 mb 0.00 in0.0 mm 0.00 in0.0 mm 0.00 in0.0 mm
01:30 AM 61.0°F16.1°C 43.3°F6.3°C 52% 5.0 mph SE8.0 kmh SE 15.0 mph24.1 kmh 29.92 in1013.2 mb 0.00 in0.0 mm 0.00 in0.0 mm 0.00 in0.0 mm
01:35 AM 61.0°F16.1°C 43.3°F6.3°C 52% 6.0 mph S9.7 kmh S 15.0 mph24.1 kmh 29.92 in1013.2 mb 0.00 in0.0 mm 0.00 in0.0 mm 0.00 in0.0 mm
01:40 AM 60.8°F16.0°C 43.6°F6.4°C 53% 8.0 mph S12.9 kmh S 8.0 mph12.9 kmh 29.92 in1013.2 mb 0.00 in0.0 mm 0.00 in0.0 mm 0.00 in0.0 mm
01:45 AM 60.8°F16.0°C 43.1°F6.2°C 52% 6.0 mph S9.7 kmh S 10.0 mph16.1 kmh 29.92 in1013.2 mb 0.00 in0.0 mm 0.00 in0.0 mm 0.00 in0.0 mm
01:50 AM 60.7°F15.9°C 43.5°F6.4°C 53% 4.0 mph S6.4 kmh S 12.0 mph19.3 kmh 29.92 in1013.2 mb 0.00 in0.0 mm 0.00 in0.0 mm 0.00 in0.0 mm
01:55 AM 60.7°F15.9°C 43.5°F6.4°C 53% 3.0 mph S4.8 kmh S 3.0 mph4.8 kmh 29.92 in1013.2 mb 0.00 in0.0 mm 0.00 in0.0 mm 0.00 in0.0 mm
02:00 AM 60.5°F15.8°C 43.8°F6.6°C 54% 1.0 mph S1.6 kmh S 7.0 mph11.3 kmh 29.92 in1013.2 mb 0.00 in0.0 mm 0.00 in0.0 mm 0.00 in0.0 mm
02:05 AM 60.4°F15.8°C 43.7°F6.5°C 54% 2.0 mph S3.2 kmh S 10.0 mph16.1 kmh 29.92 in1013.2 mb 0.00 in0.0 mm 0.00 in0.0 mm 0.00 in0.0 mm
02:10 AM 60.3°F15.7°C 43.6°F6.4°C 54% 1.0 mph S1.6 kmh S 2.0 mph3.2 kmh 29.92 in1013.2 mb 0.00 in0.0 mm 0.00 in0.0 mm 0.00 in0.0 mm
02:15 AM 60.2°F15.7°C 43.5°F6.4°C 54% 2.0 mph SSW3.2 kmh SSW 9.0 mph14.5 kmh 29.93 in1013.5 mb 0.00 in0.0 mm 0.00 in0.0 mm 0.00 in0.0 mm
02:20 AM 60.3°F15.7°C 43.6°F6.4°C 54% 7.0 mph S11.3 kmh S 9.0 mph14.5 kmh 29.93 in1013.5 mb 0.00 in0.0 mm 0.00 in0.0 mm 0.00 in0.0 mm
02:25 AM 60.3°F15.7°C 43.6°F6.4°C 54% 4.0 mph SSE6.4 kmh SSE 4.0 mph6.4 kmh 29.93 in1013.5 mb 0.00 in0.0 mm 0.00 in0.0 mm 0.00 in0.0 mm
02:30 AM 60.2°F15.7°C 44.0°F6.7°C 55% 1.0 mph S1.6 kmh S 7.0 mph11.3 kmh 29.93 in1013.5 mb 0.00 in0.0 mm 0.00 in0.0 mm 0.00 in0.0 mm
02:35 AM 60.2°F15.7°C 44.0°F6.7°C 55% 5.0 mph S8.0 kmh S 9.0 mph14.5 kmh 29.93 in1013.5 mb 0.00 in0.0 mm 0.00 in0.0 mm 0.00 in0.0 mm
02:40 AM 60.2°F15.7°C 44.0°F6.7°C 55% 2.0 mph S3.2 kmh S 2.0 mph3.2 kmh 29.93 in1013.5 mb 0.00 in0.0 mm 0.00 in0.0 mm 0.00 in0.0 mm
02:45 AM 60.1°F15.6°C 44.4°F6.9°C 56% 4.0 mph S6.4 kmh S 5.0 mph8.0 kmh 29.92 in1013.2 mb 0.00 in0.0 mm 0.00 in0.0 mm 0.00 in0.0 mm
02:50 AM 60.0°F15.6°C 44.3°F6.8°C 56% 2.0 mph SSW3.2 kmh SSW 7.0 mph11.3 kmh 29.93 in1013.5 mb 0.00 in0.0 mm 0.00 in0.0 mm 0.00 in0.0 mm
02:55 AM 60.0°F15.6°C 44.7°F7.1°C 57% 2.0 mph S3.2 kmh S 3.0 mph4.8 kmh 29.93 in1013.5 mb 0.00 in0.0 mm 0.00 in0.0 mm 0.00 in0.0 mm
03:00 AM 59.9°F15.5°C 44.7°F7.1°C 57% 1.0 mph SSW1.6 kmh SSW 6.0 mph9.7 kmh 29.93 in1013.5 mb 0.00 in0.0 mm 0.00 in0.0 mm 0.00 in0.0 mm
03:05 AM 59.8°F15.4°C 44.6°F7.0°C 57% 2.0 mph SW3.2 kmh SW 8.0 mph12.9 kmh 29.93 in1013.5 mb 0.00 in0.0 mm 0.00 in0.0 mm 0.00 in0.0 mm
03:10 AM 59.7°F15.4°C 44.5°F6.9°C 57% 1.0 mph S1.6 kmh S 2.0 mph3.2 kmh 29.93 in1013.5 mb 0.00 in0.0 mm 0.00 in0.0 mm 0.00 in0.0 mm
03:15 AM 59.6°F15.3°C 44.8°F7.1°C 58% 5.0 mph S8.0 kmh S 6.0 mph9.7 kmh 29.93 in1013.5 mb 0.00 in0.0 mm 0.00 in0.0 mm 0.00 in0.0 mm
03:20 AM 59.6°F15.3°C 44.8°F7.1°C 58% 2.0 mph S3.2 kmh S 6.0 mph9.7 kmh 29.93 in1013.5 mb 0.00 in0.0 mm 0.00 in0.0 mm 0.00 in0.0 mm
03:25 AM 59.4°F15.2°C 45.1°F7.3°C 59% 2.0 mph S3.2 kmh S 3.0 mph4.8 kmh 29.93 in1013.5 mb 0.00 in0.0 mm 0.00 in0.0 mm 0.00 in0.0 mm
03:30 AM 59.3°F15.2°C 45.0°F7.2°C 59% 7.0 mph SSW11.3 kmh SSW 7.0 mph11.3 kmh 29.93 in1013.5 mb 0.00 in0.0 mm 0.00 in0.0 mm 0.00 in0.0 mm
03:35 AM 59.3°F15.2°C 45.0°F7.2°C 59% 1.0 mph S1.6 kmh S 9.0 mph14.5 kmh 29.93 in1013.5 mb 0.00 in0.0 mm 0.00 in0.0 mm 0.00 in0.0 mm
03:40 AM 59.2°F15.1°C 44.9°F7.2°C 59% 2.0 mph S3.2 kmh S 4.0 mph6.4 kmh 29.93 in1013.5 mb 0.00 in0.0 mm 0.00 in0.0 mm 0.00 in0.0 mm
03:45 AM 59.1°F15.1°C 44.8°F7.1°C 59% Calm Calm 5.0 mph8.0 kmh 29.93 in1013.5 mb 0.00 in0.0 mm 0.00 in0.0 mm 0.00 in0.0 mm
03:50 AM 59.1°F15.1°C 45.2°F7.3°C 60% Calm Calm 5.0 mph8.0 kmh 29.93 in1013.5 mb 0.00 in0.0 mm 0.00 in0.0 mm 0.00 in0.0 mm
03:55 AM 59.0°F15.0°C 45.2°F7.3°C 60% 1.0 mph S1.6 kmh S 1.0 mph1.6 kmh 29.93 in1013.5 mb 0.00 in0.0 mm 0.00 in0.0 mm 0.00 in0.0 mm
04:00 AM 59.0°F15.0°C 45.2°F7.3°C 60% 3.0 mph S4.8 kmh S 6.0 mph9.7 kmh 29.93 in1013.5 mb 0.00 in0.0 mm 0.00 in0.0 mm 0.00 in0.0 mm
04:05 AM 59.1°F15.1°C 45.2°F7.3°C 60% 1.0 mph S1.6 kmh S 6.0 mph9.7 kmh 29.93 in1013.5 mb 0.00 in0.0 mm 0.00 in0.0 mm 0.00 in0.0 mm
04:10 AM 59.1°F15.1°C 45.2°F7.3°C 60% 6.0 mph S9.7 kmh S 6.0 mph9.7 kmh 29.93 in1013.5 mb 0.00 in0.0 mm 0.00 in0.0 mm 0.00 in0.0 mm
04:15 AM 59.1°F15.1°C 45.2°F7.3°C 60% Calm Calm 6.0 mph9.7 kmh 29.93 in1013.5 mb 0.00 in0.0 mm 0.00 in0.0 mm 0.00 in0.0 mm
04:20 AM 59.1°F15.1°C 44.8°F7.1°C 59% 1.0 mph S1.6 kmh S 6.0 mph9.7 kmh 29.94 in1013.9 mb 0.00 in0.0 mm 0.00 in0.0 mm 0.00 in0.0 mm
04:25 AM 59.2°F15.1°C 44.9°F7.2°C 59% 2.0 mph S3.2 kmh S 2.0 mph3.2 kmh 29.94 in1013.9 mb 0.00 in0.0 mm 0.00 in0.0 mm 0.00 in0.0 mm
04:30 AM 59.2°F15.1°C 44.9°F7.2°C 59% Calm Calm 3.0 mph4.8 kmh 29.94 in1013.9 mb 0.00 in0.0 mm 0.00 in0.0 mm 0.00 in0.0 mm
04:35 AM 59.3°F15.2°C 44.1°F6.7°C 57% Calm Calm 5.0 mph8.0 kmh 29.94 in1013.9 mb 0.00 in0.0 mm 0.00 in0.0 mm 0.00 in0.0 mm
04:40 AM 59.4°F15.2°C 44.2°F6.8°C 57% 3.0 mph S4.8 kmh S 4.0 mph6.4 kmh 29.94 in1013.9 mb 0.00 in0.0 mm 0.00 in0.0 mm 0.00 in0.0 mm
04:45 AM 59.6°F15.3°C 44.4°F6.9°C 57% 3.0 mph S4.8 kmh S 5.0 mph8.0 kmh 29.94 in1013.9 mb 0.00 in0.0 mm 0.00 in0.0 mm 0.00 in0.0 mm
04:50 AM 59.7°F15.4°C 44.0°F6.7°C 56% 1.0 mph S1.6 kmh S 5.0 mph8.0 kmh 29.94 in1013.9 mb 0.00 in0.0 mm 0.00 in0.0 mm 0.00 in0.0 mm
04:55 AM 59.7°F15.4°C 44.0°F6.7°C 56% 3.0 mph S4.8 kmh S 4.0 mph6.4 kmh 29.94 in1013.9 mb 0.00 in0.0 mm 0.00 in0.0 mm 0.00 in0.0 mm
05:00 AM 59.8°F15.4°C 44.1°F6.7°C 56% 2.0 mph S3.2 kmh S 5.0 mph8.0 kmh 29.94 in1013.9 mb 0.00 in0.0 mm 0.00 in0.0 mm 0.00 in0.0 mm
05:05 AM 59.9°F15.5°C 44.2°F6.8°C 56% 2.0 mph S3.2 kmh S 6.0 mph9.7 kmh 29.94 in1013.9 mb 0.00 in0.0 mm 0.00 in0.0 mm 0.00 in0.0 mm
05:10 AM 60.0°F15.6°C 44.3°F6.8°C 56% 5.0 mph S8.0 kmh S 6.0 mph9.7 kmh 29.94 in1013.9 mb 0.00 in0.0 mm 0.00 in0.0 mm 0.00 in0.0 mm
05:15 AM 60.0°F15.6°C 44.3°F6.8°C 56% 4.0 mph SSW6.4 kmh SSW 6.0 mph9.7 kmh 29.94 in1013.9 mb 0.00 in0.0 mm 0.00 in0.0 mm 0.00 in0.0 mm
05:20 AM 60.0°F15.6°C 44.7°F7.1°C 57% 2.0 mph SSW3.2 kmh SSW 6.0 mph9.7 kmh 29.95 in1014.2 mb 0.00 in0.0 mm 0.00 in0.0 mm 0.00 in0.0 mm
05:25 AM 60.0°F15.6°C 44.3°F6.8°C 56% 2.0 mph SSW3.2 kmh SSW 3.0 mph4.8 kmh 29.95 in1014.2 mb 0.00 in0.0 mm 0.00 in0.0 mm 0.00 in0.0 mm
05:30 AM 60.0°F15.6°C 44.3°F6.8°C 56% 7.0 mph S11.3 kmh S 7.0 mph11.3 kmh 29.95 in1014.2 mb 0.00 in0.0 mm 0.00 in0.0 mm 0.00 in0.0 mm
05:35 AM 60.1°F15.6°C 44.8°F7.1°C 57% 3.0 mph S4.8 kmh S 7.0 mph11.3 kmh 29.95 in1014.2 mb 0.00 in0.0 mm 0.00 in0.0 mm 0.00 in0.0 mm
05:40 AM 60.1°F15.6°C 44.8°F7.1°C 57% 4.0 mph S6.4 kmh S 6.0 mph9.7 kmh 29.95 in1014.2 mb 0.00 in0.0 mm 0.00 in0.0 mm 0.00 in0.0 mm
05:45 AM 60.1°F15.6°C 44.4°F6.9°C 56% 5.0 mph S8.0 kmh S 8.0 mph12.9 kmh 29.95 in1014.2 mb 0.00 in0.0 mm 0.00 in0.0 mm 0.00 in0.0 mm
05:50 AM 60.1°F15.6°C 44.4°F6.9°C 56% 3.0 mph S4.8 kmh S 8.0 mph12.9 kmh 29.95 in1014.2 mb 0.00 in0.0 mm 0.00 in0.0 mm 0.00 in0.0 mm
05:55 AM 60.1°F15.6°C 44.8°F7.1°C 57% 3.0 mph S4.8 kmh S 4.0 mph6.4 kmh 29.96 in1014.6 mb 0.00 in0.0 mm 0.00 in0.0 mm 0.00 in0.0 mm
06:00 AM 60.1°F15.6°C 44.8°F7.1°C 57% 2.0 mph S3.2 kmh S 7.0 mph11.3 kmh 29.96 in1014.6 mb 0.00 in0.0 mm 0.00 in0.0 mm 0.00 in0.0 mm
06:05 AM 60.1°F15.6°C 45.7°F7.6°C 59% 9.0 mph WNW14.5 kmh WNW 13.0 mph20.9 kmh 29.98 in1015.2 mb 0.00 in0.0 mm 0.00 in0.0 mm 0.00 in0.0 mm
06:10 AM 60.1°F15.6°C 45.3°F7.4°C 58% 2.0 mph WNW3.2 kmh WNW 2.0 mph3.2 kmh 29.98 in1015.2 mb 0.00 in0.0 mm 0.00 in0.0 mm 0.00 in0.0 mm
06:15 AM 60.1°F15.6°C 46.2°F7.9°C 60% 4.0 mph WNW6.4 kmh WNW 8.0 mph12.9 kmh 29.98 in1015.2 mb 0.00 in0.0 mm 0.00 in0.0 mm 0.00 in0.0 mm
06:20 AM 60.3°F15.7°C 46.4°F8.0°C 60% 8.0 mph WNW12.9 kmh WNW 9.0 mph14.5 kmh 29.99 in1015.6 mb 0.00 in0.0 mm 0.00 in0.0 mm 0.00 in0.0 mm
06:25 AM 60.4°F15.8°C 46.0°F7.8°C 59% 3.0 mph WNW4.8 kmh WNW 3.0 mph4.8 kmh 29.99 in1015.6 mb 0.00 in0.0 mm 0.00 in0.0 mm 0.00 in0.0 mm
06:30 AM 60.7°F15.9°C 46.3°F7.9°C 59% 4.0 mph WNW6.4 kmh WNW 7.0 mph11.3 kmh 29.99 in1015.6 mb 0.00 in0.0 mm 0.00 in0.0 mm 0.00 in0.0 mm
06:35 AM 60.8°F16.0°C 46.4°F8.0°C 59% 3.0 mph W4.8 kmh W 7.0 mph11.3 kmh 29.99 in1015.6 mb 0.00 in0.0 mm 0.00 in0.0 mm 0.00 in0.0 mm
06:40 AM 60.8°F16.0°C 46.4°F8.0°C 59% 2.0 mph W3.2 kmh W 3.0 mph4.8 kmh 29.99 in1015.6 mb 0.00 in0.0 mm 0.00 in0.0 mm 0.00 in0.0 mm
06:45 AM 60.7°F15.9°C 46.8°F8.2°C 60% 2.0 mph W3.2 kmh W 6.0 mph9.7 kmh 29.99 in1015.6 mb 0.00 in0.0 mm 0.00 in0.0 mm 0.00 in0.0 mm
06:50 AM 60.6°F15.9°C 46.2°F7.9°C 59% 2.0 mph W3.2 kmh W 6.0 mph9.7 kmh 29.99 in1015.6 mb 0.00 in0.0 mm 0.00 in0.0 mm 0.00 in0.0 mm
06:55 AM 60.7°F15.9°C 46.3°F7.9°C 59% 1.0 mph W1.6 kmh W 3.0 mph4.8 kmh 29.99 in1015.6 mb 0.00 in0.0 mm 0.00 in0.0 mm 0.00 in0.0 mm
07:00 AM 60.9°F16.1°C 47.4°F8.6°C 61% 1.0 mph W1.6 kmh W 3.0 mph4.8 kmh 29.99 in1015.6 mb 0.00 in0.0 mm 0.00 in0.0 mm 0.00 in0.0 mm
07:05 AM 61.1°F16.2°C 47.1°F8.4°C 60% Calm Calm 3.0 mph4.8 kmh 30.00 in1015.9 mb 0.00 in0.0 mm 0.00 in0.0 mm 0.00 in0.0 mm
07:10 AM 61.4°F16.3°C 47.0°F8.3°C 59% Calm Calm 1.0 mph1.6 kmh 30.00 in1015.9 mb 0.00 in0.0 mm 0.00 in0.0 mm 0.00 in0.0 mm
07:15 AM 61.6°F16.4°C 47.2°F8.4°C 59% 1.0 mph W1.6 kmh W 3.0 mph4.8 kmh 30.00 in1015.9 mb 0.00 in0.0 mm 0.00 in0.0 mm 0.00 in0.0 mm
07:20 AM 61.7°F16.5°C 46.3°F7.9°C 57% 1.0 mph W1.6 kmh W 3.0 mph4.8 kmh 30.00 in1015.9 mb 0.00 in0.0 mm 0.00 in0.0 mm 0.00 in0.0 mm
07:25 AM 62.0°F16.7°C 46.1°F7.8°C 56% Calm Calm 1.0 mph1.6 kmh 30.00 in1015.9 mb 0.00 in0.0 mm 0.00 in0.0 mm 0.00 in0.0 mm
07:30 AM 62.5°F16.9°C 48.0°F8.9°C 59% Calm Calm 2.0 mph3.2 kmh 30.00 in1015.9 mb 0.00 in0.0 mm 0.00 in0.0 mm 0.00 in0.0 mm
07:35 AM 62.7°F17.1°C 46.3°F7.9°C 55% Calm Calm 3.0 mph4.8 kmh 30.00 in1015.9 mb 0.00 in0.0 mm 0.00 in0.0 mm 0.00 in0.0 mm
07:40 AM 62.7°F17.1°C 45.8°F7.7°C 54% 1.0 mph W1.6 kmh W 1.0 mph1.6 kmh 30.00 in1015.9 mb 0.00 in0.0 mm 0.00 in0.0 mm 0.00 in0.0 mm
07:45 AM 62.7°F17.1°C 45.8°F7.7°C 54% 3.0 mph W4.8 kmh W 3.0 mph4.8 kmh 30.00 in1015.9 mb 0.00 in0.0 mm 0.00 in0.0 mm 0.00 in0.0 mm
07:50 AM 62.8°F17.1°C 46.9°F8.3°C 56% 1.0 mph W1.6 kmh W 4.0 mph6.4 kmh 30.00 in1015.9 mb 0.00 in0.0 mm 0.00 in0.0 mm 0.00 in0.0 mm
07:55 AM 62.8°F17.1°C 47.4°F8.6°C 57% 1.0 mph W1.6 kmh W 1.0 mph1.6 kmh 30.00 in1015.9 mb 0.00 in0.0 mm 0.00 in0.0 mm 0.00 in0.0 mm
08:00 AM 63.0°F17.2°C 47.1°F8.4°C 56% 2.0 mph W3.2 kmh W 3.0 mph4.8 kmh 30.00 in1015.9 mb 0.00 in0.0 mm 0.00 in0.0 mm 0.00 in0.0 mm
08:05 AM 62.9°F17.2°C 46.0°F7.8°C 54% 3.0 mph W4.8 kmh W 6.0 mph9.7 kmh 30.00 in1015.9 mb 0.00 in0.0 mm 0.00 in0.0 mm 0.00 in0.0 mm
08:10 AM 63.0°F17.2°C 46.6°F8.1°C 55% 3.0 mph W4.8 kmh W 3.0 mph4.8 kmh 30.00 in1015.9 mb 0.00 in0.0 mm 0.00 in0.0 mm 0.00 in0.0 mm
08:15 AM 63.3°F17.4°C 45.4°F7.4°C 52% 4.0 mph W6.4 kmh W 6.0 mph9.7 kmh 30.00 in1015.9 mb 0.00 in0.0 mm 0.00 in0.0 mm 0.00 in0.0 mm
08:20 AM 60.9°F16.1°C 49.5°F9.7°C 66% 1.0 mph W1.6 kmh W 6.0 mph9.7 kmh 30.01 in1016.3 mb 0.00 in0.0 mm 0.00 in0.0 mm 0.00 in0.0 mm
08:25 AM 60.3°F15.7°C 49.3°F9.6°C 67% 2.0 mph W3.2 kmh W 2.0 mph3.2 kmh 30.01 in1016.3 mb 0.00 in0.0 mm 0.00 in0.0 mm 0.00 in0.0 mm
08:30 AM 60.1°F15.6°C 49.9°F9.9°C 69% 3.0 mph W4.8 kmh W 4.0 mph6.4 kmh 30.01 in1016.3 mb 0.00 in0.0 mm 0.00 in0.0 mm 0.00 in0.0 mm
08:35 AM 59.6°F15.3°C 50.6°F10.3°C 72% 2.0 mph W3.2 kmh W 6.0 mph9.7 kmh 30.01 in1016.3 mb 0.00 in0.0 mm 0.00 in0.0 mm 0.00 in0.0 mm
08:40 AM 59.6°F15.3°C 49.0°F9.4°C 68% 6.0 mph W9.7 kmh W 6.0 mph9.7 kmh 30.01 in1016.3 mb 0.00 in0.0 mm 0.00 in0.0 mm 0.00 in0.0 mm
08:45 AM 60.0°F15.6°C 50.6°F10.3°C 71% 2.0 mph W3.2 kmh W 6.0 mph9.7 kmh 30.01 in1016.3 mb 0.00 in0.0 mm 0.00 in0.0 mm 0.00 in0.0 mm
08:50 AM 60.2°F15.7°C 51.9°F11.1°C 74% 3.0 mph W4.8 kmh W 6.0 mph9.7 kmh 30.01 in1016.3 mb 0.00 in0.0 mm 0.00 in0.0 mm 0.00 in0.0 mm
08:55 AM 60.1°F15.6°C 50.7°F10.4°C 71% Calm Calm 1.0 mph1.6 kmh 30.01 in1016.3 mb 0.00 in0.0 mm 0.00 in0.0 mm 0.00 in0.0 mm
09:00 AM 60.9°F16.1°C 49.9°F9.9°C 67% 4.0 mph W6.4 kmh W 6.0 mph9.7 kmh 30.01 in1016.3 mb 0.00 in0.0 mm 0.00 in0.0 mm 0.00 in0.0 mm
09:05 AM 60.9°F16.1°C 50.3°F10.2°C 68% Calm Calm 6.0 mph9.7 kmh 30.01 in1016.3 mb 0.00 in0.0 mm 0.00 in0.0 mm 0.00 in0.0 mm
09:10 AM 61.7°F16.5°C 48.6°F9.2°C 62% 2.0 mph W3.2 kmh W 2.0 mph3.2 kmh 30.01 in1016.3 mb 0.00 in0.0 mm 0.00 in0.0 mm 0.00 in0.0 mm
09:15 AM 61.9°F16.6°C 48.3°F9.1°C 61% 2.0 mph W3.2 kmh W 3.0 mph4.8 kmh 30.02 in1016.6 mb 0.00 in0.0 mm 0.00 in0.0 mm 0.00 in0.0 mm
09:20 AM 61.3°F16.3°C 51.1°F10.6°C 69% 8.0 mph NNW12.9 kmh NNW 9.0 mph14.5 kmh 30.02 in1016.6 mb 0.00 in0.0 mm 0.00 in0.0 mm 0.00 in0.0 mm
09:25 AM 61.8°F16.6°C 48.7°F9.3°C 62% 2.0 mph NNW3.2 kmh NNW 2.0 mph3.2 kmh 30.02 in1016.6 mb 0.00 in0.0 mm 0.00 in0.0 mm 0.00 in0.0 mm
09:30 AM 61.6°F16.4°C 49.3°F9.6°C 64% 5.0 mph NNW8.0 kmh NNW 9.0 mph14.5 kmh 30.02 in1016.6 mb 0.00 in0.0 mm 0.00 in0.0 mm 0.00 in0.0 mm
09:35 AM 61.5°F16.4°C 50.5°F10.3°C 67% 6.0 mph NNW9.7 kmh NNW 9.0 mph14.5 kmh 30.02 in1016.6 mb 0.00 in0.0 mm 0.00 in0.0 mm 0.00 in0.0 mm
09:40 AM 62.9°F17.2°C 48.4°F9.1°C 59% 5.0 mph NNW8.0 kmh NNW 5.0 mph8.0 kmh 30.01 in1016.3 mb 0.00 in0.0 mm 0.00 in0.0 mm 0.00 in0.0 mm
09:45 AM 62.6°F17.0°C 51.1°F10.6°C 66% 10.0 mph N16.1 kmh N 10.0 mph16.1 kmh 30.01 in1016.3 mb 0.00 in0.0 mm 0.00 in0.0 mm 0.00 in0.0 mm
09:50 AM 63.2°F17.3°C 47.7°F8.7°C 57% 4.0 mph NNE6.4 kmh NNE 11.0 mph17.7 kmh 30.01 in1016.3 mb 0.00 in0.0 mm 0.00 in0.0 mm 0.00 in0.0 mm
09:55 AM 63.0°F17.2°C 48.5°F9.2°C 59% 7.0 mph N11.3 kmh N 7.0 mph11.3 kmh 30.01 in1016.3 mb 0.00 in0.0 mm 0.00 in0.0 mm 0.00 in0.0 mm
10:00 AM 62.4°F16.9°C 50.1°F10.1°C 64% 7.0 mph N11.3 kmh N 10.0 mph16.1 kmh 30.01 in1016.3 mb 0.00 in0.0 mm 0.00 in0.0 mm 0.00 in0.0 mm
10:05 AM 62.8°F17.1°C 50.0°F10.0°C 63% 9.0 mph N14.5 kmh N 13.0 mph20.9 kmh 30.01 in1016.3 mb 0.00 in0.0 mm 0.00 in0.0 mm 0.00 in0.0 mm
10:10 AM 62.4°F16.9°C 50.5°F10.3°C 65% 9.0 mph N14.5 kmh N 9.0 mph14.5 kmh 30.01 in1016.3 mb 0.00 in0.0 mm 0.00 in0.0 mm 0.00 in0.0 mm
10:15 AM 62.5°F16.9°C 49.8°F9.9°C 63% 4.0 mph N6.4 kmh N 12.0 mph19.3 kmh 30.01 in1016.3 mb 0.00 in0.0 mm 0.00 in0.0 mm 0.00 in0.0 mm
10:20 AM 62.5°F16.9°C 51.0°F10.6°C 66% 8.0 mph NNE12.9 kmh NNE 12.0 mph19.3 kmh 30.01 in1016.3 mb 0.00 in0.0 mm 0.00 in0.0 mm 0.00 in0.0 mm
10:25 AM 61.9°F16.6°C 51.6°F10.9°C 69% 10.0 mph NNE16.1 kmh NNE 11.0 mph17.7 kmh 30.01 in1016.3 mb 0.00 in0.0 mm 0.00 in0.0 mm 0.00 in0.0 mm
10:30 AM 61.1°F16.2°C 52.0°F11.1°C 72% 11.0 mph NE17.7 kmh NE 12.0 mph19.3 kmh 30.02 in1016.6 mb 0.00 in0.0 mm 0.00 in0.0 mm 0.00 in0.0 mm
10:35 AM 61.2°F16.2°C 51.7°F10.9°C 71% 10.0 mph NE16.1 kmh NE 12.0 mph19.3 kmh 30.01 in1016.3 mb 0.00 in0.0 mm 0.00 in0.0 mm 0.00 in0.0 mm
10:40 AM 60.8°F16.0°C 52.5°F11.4°C 74% 8.0 mph NE12.9 kmh NE 8.0 mph12.9 kmh 30.02 in1016.6 mb 0.00 in0.0 mm 0.00 in0.0 mm 0.00 in0.0 mm
10:45 AM 61.2°F16.2°C 51.7°F10.9°C 71% 8.0 mph NE12.9 kmh NE 11.0 mph17.7 kmh 30.02 in1016.6 mb 0.00 in0.0 mm 0.00 in0.0 mm 0.00 in0.0 mm
10:50 AM 61.2°F16.2°C 51.7°F10.9°C 71% 8.0 mph NE12.9 kmh NE 11.0 mph17.7 kmh 30.02 in1016.6 mb 0.00 in0.0 mm 0.00 in0.0 mm 0.00 in0.0 mm
10:55 AM 61.7°F16.5°C 50.6°F10.3°C 67% 8.0 mph NE12.9 kmh NE 8.0 mph12.9 kmh 30.01 in1016.3 mb 0.00 in0.0 mm 0.00 in0.0 mm 0.00 in0.0 mm
11:00 AM 61.2°F16.2°C 52.5°F11.4°C 73% 8.0 mph NE12.9 kmh NE 10.0 mph16.1 kmh 30.01 in1016.3 mb 0.00 in0.0 mm 0.00 in0.0 mm 0.00 in0.0 mm
11:05 AM 61.3°F16.3°C 52.6°F11.4°C 73% 8.0 mph NE12.9 kmh NE 10.0 mph16.1 kmh 30.02 in1016.6 mb 0.00 in0.0 mm 0.00 in0.0 mm 0.00 in0.0 mm
11:10 AM 61.1°F16.2°C 52.8°F11.6°C 74% 8.0 mph NE12.9 kmh NE 8.0 mph12.9 kmh 30.02 in1016.6 mb 0.00 in0.0 mm 0.00 in0.0 mm 0.00 in0.0 mm
11:15 AM 61.7°F16.5°C 52.2°F11.2°C 71% 8.0 mph NE12.9 kmh NE 9.0 mph14.5 kmh 30.02 in1016.6 mb 0.00 in0.0 mm 0.00 in0.0 mm 0.00 in0.0 mm
11:20 AM 61.9°F16.6°C 52.4°F11.3°C 71% 9.0 mph NE14.5 kmh NE 11.0 mph17.7 kmh 30.02 in1016.6 mb 0.00 in0.0 mm 0.00 in0.0 mm 0.00 in0.0 mm
11:25 AM 62.4°F16.9°C 51.7°F10.9°C 68% 10.0 mph NNE16.1 kmh NNE 11.0 mph17.7 kmh 30.02 in1016.6 mb 0.00 in0.0 mm 0.00 in0.0 mm 0.00 in0.0 mm
11:30 AM 63.0°F17.2°C 52.3°F11.3°C 68% 10.0 mph NNE16.1 kmh NNE 12.0 mph19.3 kmh 30.02 in1016.6 mb 0.00 in0.0 mm 0.00 in0.0 mm 0.00 in0.0 mm
11:35 AM 63.3°F17.4°C 52.2°F11.2°C 67% 11.0 mph NNE17.7 kmh NNE 12.0 mph19.3 kmh 30.02 in1016.6 mb 0.00 in0.0 mm 0.00 in0.0 mm 0.00 in0.0 mm
11:40 AM 63.8°F17.7°C 51.8°F11.0°C 65% 11.0 mph NNE17.7 kmh NNE 12.0 mph19.3 kmh 30.02 in1016.6 mb 0.00 in0.0 mm 0.00 in0.0 mm 0.00 in0.0 mm
11:45 AM 63.3°F17.4°C 53.0°F11.7°C 69% 9.0 mph NNE14.5 kmh NNE 12.0 mph19.3 kmh 30.02 in1016.6 mb 0.00 in0.0 mm 0.00 in0.0 mm 0.00 in0.0 mm
11:50 AM 64.0°F17.8°C 52.0°F11.1°C 65% 11.0 mph N17.7 kmh N 12.0 mph19.3 kmh 30.02 in1016.6 mb 0.00 in0.0 mm 0.00 in0.0 mm 0.00 in0.0 mm
11:55 AM 64.5°F18.1°C 52.5°F11.4°C 65% 6.0 mph N9.7 kmh N 6.0 mph9.7 kmh 30.02 in1016.6 mb 0.00 in0.0 mm 0.00 in0.0 mm 0.00 in0.0 mm
12:00 PM 64.6°F18.1°C 52.6°F11.4°C 65% 8.0 mph NNE12.9 kmh NNE 10.0 mph16.1 kmh 30.02 in1016.6 mb 0.00 in0.0 mm 0.00 in0.0 mm 0.00 in0.0 mm
12:05 PM 64.0°F17.8°C 52.8°F11.6°C 67% 7.0 mph NNE11.3 kmh NNE 10.0 mph16.1 kmh 30.02 in1016.6 mb 0.00 in0.0 mm 0.00 in0.0 mm 0.00 in0.0 mm
12:10 PM 63.7°F17.6°C 53.0°F11.7°C 68% 9.0 mph NNE14.5 kmh NNE 11.0 mph17.7 kmh 30.02 in1016.6 mb 0.00 in0.0 mm 0.00 in0.0 mm 0.00 in0.0 mm
12:15 PM 64.0°F17.8°C 53.2°F11.8°C 68% 7.0 mph N11.3 kmh N 12.0 mph19.3 kmh 30.02 in1016.6 mb 0.00 in0.0 mm 0.00 in0.0 mm 0.00 in0.0 mm
12:20 PM 63.8°F17.7°C 52.7°F11.5°C 67% 10.0 mph NNE16.1 kmh NNE 12.0 mph19.3 kmh 30.02 in1016.6 mb 0.00 in0.0 mm 0.00 in0.0 mm 0.00 in0.0 mm
12:25 PM 64.1°F17.8°C 52.9°F11.6°C 67% 9.0 mph NNE14.5 kmh NNE 9.0 mph14.5 kmh 30.02 in1016.6 mb 0.00 in0.0 mm 0.00 in0.0 mm 0.00 in0.0 mm
12:30 PM 64.5°F18.1°C 52.5°F11.4°C 65% 11.0 mph NNE17.7 kmh NNE 12.0 mph19.3 kmh 30.02 in1016.6 mb 0.00 in0.0 mm 0.00 in0.0 mm 0.00 in0.0 mm
12:35 PM 64.3°F17.9°C 52.7°F11.5°C 66% 11.0 mph NNE17.7 kmh NNE 12.0 mph19.3 kmh 30.02 in1016.6 mb 0.00 in0.0 mm 0.00 in0.0 mm 0.00 in0.0 mm
12:40 PM 64.5°F18.1°C 53.3°F11.8°C 67% 11.0 mph NNE17.7 kmh NNE 11.0 mph17.7 kmh 30.01 in1016.3 mb 0.00 in0.0 mm 0.00 in0.0 mm 0.00 in0.0 mm
12:45 PM 64.4°F18.0°C 54.0°F12.2°C 69% 9.0 mph NNE14.5 kmh NNE 12.0 mph19.3 kmh 30.02 in1016.6 mb 0.00 in0.0 mm 0.00 in0.0 mm 0.00 in0.0 mm
12:50 PM 64.9°F18.3°C 53.7°F12.1°C 67% 11.0 mph NNE17.7 kmh NNE 12.0 mph19.3 kmh 30.02 in1016.6 mb 0.00 in0.0 mm 0.00 in0.0 mm 0.00 in0.0 mm
12:55 PM 65.2°F18.4°C 53.6°F12.0°C 66% 9.0 mph NNE14.5 kmh NNE 9.0 mph14.5 kmh 30.02 in1016.6 mb 0.00 in0.0 mm 0.00 in0.0 mm 0.00 in0.0 mm
01:00 PM 64.9°F18.3°C 54.1°F12.3°C 68% 10.0 mph NNE16.1 kmh NNE 10.0 mph16.1 kmh 30.02 in1016.6 mb 0.00 in0.0 mm 0.00 in0.0 mm 0.00 in0.0 mm
01:05 PM 64.9°F18.3°C 54.1°F12.3°C 68% 8.0 mph NNE12.9 kmh NNE 11.0 mph17.7 kmh 30.02 in1016.6 mb 0.00 in0.0 mm 0.00 in0.0 mm 0.00 in0.0 mm
01:10 PM 64.7°F18.2°C 53.9°F12.2°C 68% 9.0 mph NNE14.5 kmh NNE 9.0 mph14.5 kmh 30.02 in1016.6 mb 0.00 in0.0 mm 0.00 in0.0 mm 0.00 in0.0 mm
01:15 PM 64.5°F18.1°C 54.9°F12.7°C 71% 8.0 mph NE12.9 kmh NE 10.0 mph16.1 kmh 30.02 in1016.6 mb 0.00 in0.0 mm 0.00 in0.0 mm 0.00 in0.0 mm
01:20 PM 63.8°F17.7°C 54.2°F12.3°C 71% 9.0 mph NE14.5 kmh NE 11.0 mph17.7 kmh 30.02 in1016.6 mb 0.00 in0.0 mm 0.00 in0.0 mm 0.00 in0.0 mm
01:25 PM 63.6°F17.6°C 54.4°F12.4°C 72% 7.0 mph NE11.3 kmh NE 7.0 mph11.3 kmh 30.02 in1016.6 mb 0.00 in0.0 mm 0.00 in0.0 mm 0.00 in0.0 mm
01:30 PM 63.3°F17.4°C 54.9°F12.7°C 74% 6.0 mph NE9.7 kmh NE 7.0 mph11.3 kmh 30.02 in1016.6 mb 0.00 in0.0 mm 0.00 in0.0 mm 0.00 in0.0 mm
01:35 PM 63.9°F17.7°C 55.5°F13.1°C 74% 6.0 mph NE9.7 kmh NE 7.0 mph11.3 kmh 30.02 in1016.6 mb 0.00 in0.0 mm 0.00 in0.0 mm 0.00 in0.0 mm
01:40 PM 63.5°F17.5°C 54.3°F12.4°C 72% 6.0 mph NE9.7 kmh NE 6.0 mph9.7 kmh 30.02 in1016.6 mb 0.00 in0.0 mm 0.00 in0.0 mm 0.00 in0.0 mm
01:45 PM 64.3°F17.9°C 55.1°F12.8°C 72% 6.0 mph NE9.7 kmh NE 7.0 mph11.3 kmh 30.02 in1016.6 mb 0.00 in0.0 mm 0.00 in0.0 mm 0.00 in0.0 mm
01:50 PM 64.4°F18.0°C 55.6°F13.1°C 73% 7.0 mph NE11.3 kmh NE 7.0 mph11.3 kmh 30.03 in1016.9 mb 0.00 in0.0 mm 0.00 in0.0 mm 0.00 in0.0 mm
01:55 PM 63.9°F17.7°C 54.7°F12.6°C 72% 6.0 mph NE9.7 kmh NE 6.0 mph9.7 kmh 30.03 in1016.9 mb 0.00 in0.0 mm 0.00 in0.0 mm 0.00 in0.0 mm
02:00 PM 63.6°F17.6°C 55.2°F12.9°C 74% 7.0 mph NE11.3 kmh NE 7.0 mph11.3 kmh 30.03 in1016.9 mb 0.00 in0.0 mm 0.00 in0.0 mm 0.00 in0.0 mm
02:05 PM 63.6°F17.6°C 55.2°F12.9°C 74% 5.0 mph NE8.0 kmh NE 7.0 mph11.3 kmh 30.02 in1016.6 mb 0.00 in0.0 mm 0.00 in0.0 mm 0.00 in0.0 mm
02:10 PM 63.8°F17.7°C 55.0°F12.8°C 73% 6.0 mph NE9.7 kmh NE 8.0 mph12.9 kmh 30.02 in1016.6 mb 0.00 in0.0 mm 0.00 in0.0 mm 0.00 in0.0 mm
02:15 PM 63.5°F17.5°C 54.7°F12.6°C 73% 6.0 mph NE9.7 kmh NE 8.0 mph12.9 kmh 30.02 in1016.6 mb 0.00 in0.0 mm 0.00 in0.0 mm 0.00 in0.0 mm
02:20 PM 63.8°F17.7°C 54.6°F12.6°C 72% 5.0 mph NNE8.0 kmh NNE 8.0 mph12.9 kmh 30.02 in1016.6 mb 0.00 in0.0 mm 0.00 in0.0 mm 0.00 in0.0 mm
02:25 PM 64.4°F18.0°C 54.8°F12.7°C 71% 6.0 mph NNE9.7 kmh NNE 6.0 mph9.7 kmh 30.02 in1016.6 mb 0.00 in0.0 mm 0.00 in0.0 mm 0.00 in0.0 mm
02:30 PM 64.1°F17.8°C 54.5°F12.5°C 71% 8.0 mph NNE12.9 kmh NNE 8.0 mph12.9 kmh 30.02 in1016.6 mb 0.00 in0.0 mm 0.00 in0.0 mm 0.00 in0.0 mm
02:35 PM 64.1°F17.8°C 54.9°F12.7°C 72% 8.0 mph NNE12.9 kmh NNE 9.0 mph14.5 kmh 30.02 in1016.6 mb 0.00 in0.0 mm 0.00 in0.0 mm 0.00 in0.0 mm
02:40 PM 63.9°F17.7°C 55.1°F12.8°C 73% 8.0 mph NNE12.9 kmh NNE 8.0 mph12.9 kmh 30.01 in1016.3 mb 0.00 in0.0 mm 0.00 in0.0 mm 0.00 in0.0 mm
02:45 PM 64.1°F17.8°C 54.9°F12.7°C 72% 8.0 mph NNE12.9 kmh NNE 9.0 mph14.5 kmh 30.01 in1016.3 mb 0.00 in0.0 mm 0.00 in0.0 mm 0.00 in0.0 mm
02:50 PM 64.1°F17.8°C 53.7°F12.1°C 69% 9.0 mph NNE14.5 kmh NNE 10.0 mph16.1 kmh 30.01 in1016.3 mb 0.00 in0.0 mm 0.00 in0.0 mm 0.00 in0.0 mm
02:55 PM 64.6°F18.1°C 53.4°F11.9°C 67% 10.0 mph NNE16.1 kmh NNE 10.0 mph16.1 kmh 30.01 in1016.3 mb 0.00 in0.0 mm 0.00 in0.0 mm 0.00 in0.0 mm
03:00 PM 64.7°F18.2°C 53.5°F11.9°C 67% 9.0 mph NNE14.5 kmh NNE 13.0 mph20.9 kmh 30.00 in1015.9 mb 0.00 in0.0 mm 0.00 in0.0 mm 0.00 in0.0 mm
03:05 PM 64.0°F17.8°C 54.4°F12.4°C 71% 8.0 mph NNE12.9 kmh NNE 13.0 mph20.9 kmh 30.01 in1016.3 mb 0.00 in0.0 mm 0.00 in0.0 mm 0.00 in0.0 mm
03:10 PM 63.7°F17.6°C 54.5°F12.5°C 72% 8.0 mph NNE12.9 kmh NNE 9.0 mph14.5 kmh 30.00 in1015.9 mb 0.00 in0.0 mm 0.00 in0.0 mm 0.00 in0.0 mm
03:15 PM 63.7°F17.6°C 54.9°F12.7°C 73% 9.0 mph NNE14.5 kmh NNE 10.0 mph16.1 kmh 30.00 in1015.9 mb 0.00 in0.0 mm 0.00 in0.0 mm 0.00 in0.0 mm
03:20 PM 64.1°F17.8°C 54.9°F12.7°C 72% 10.0 mph NNE16.1 kmh NNE 11.0 mph17.7 kmh 30.00 in1015.9 mb 0.00 in0.0 mm 0.00 in0.0 mm 0.00 in0.0 mm
03:25 PM 64.0°F17.8°C 55.2°F12.9°C 73% 10.0 mph NNE16.1 kmh NNE 10.0 mph16.1 kmh 30.00 in1015.9 mb 0.00 in0.0 mm 0.00 in0.0 mm 0.00 in0.0 mm
03:30 PM 63.8°F17.7°C 55.0°F12.8°C 73% 10.0 mph NNE16.1 kmh NNE 11.0 mph17.7 kmh 30.00 in1015.9 mb 0.00 in0.0 mm 0.00 in0.0 mm 0.00 in0.0 mm
03:35 PM 63.6°F17.6°C 54.8°F12.7°C 73% 9.0 mph NNE14.5 kmh NNE 11.0 mph17.7 kmh 30.00 in1015.9 mb 0.00 in0.0 mm 0.00 in0.0 mm 0.00 in0.0 mm
03:40 PM 63.5°F17.5°C 54.7°F12.6°C 73% 9.0 mph NNE14.5 kmh NNE 9.0 mph14.5 kmh 30.00 in1015.9 mb 0.00 in0.0 mm 0.00 in0.0 mm 0.00 in0.0 mm
03:45 PM 63.8°F17.7°C 54.2°F12.3°C 71% 9.0 mph NNE14.5 kmh NNE 11.0 mph17.7 kmh 30.00 in1015.9 mb 0.00 in0.0 mm 0.00 in0.0 mm 0.00 in0.0 mm
03:50 PM 63.4°F17.4°C 55.0°F12.8°C 74% 10.0 mph NNE16.1 kmh NNE 11.0 mph17.7 kmh 30.00 in1015.9 mb 0.00 in0.0 mm 0.00 in0.0 mm 0.00 in0.0 mm
03:55 PM 62.9°F17.2°C 55.2°F12.9°C 76% 10.0 mph NNE16.1 kmh NNE 10.0 mph16.1 kmh 29.99 in1015.6 mb 0.00 in0.0 mm 0.00 in0.0 mm 0.00 in0.0 mm
04:00 PM 62.9°F17.2°C 54.5°F12.5°C 74% 11.0 mph NNE17.7 kmh NNE 11.0 mph17.7 kmh 30.00 in1015.9 mb 0.00 in0.0 mm 0.00 in0.0 mm 0.00 in0.0 mm
04:05 PM 62.9°F17.2°C 54.9°F12.7°C 75% 10.0 mph NNE16.1 kmh NNE 12.0 mph19.3 kmh 30.00 in1015.9 mb 0.00 in0.0 mm 0.00 in0.0 mm 0.00 in0.0 mm
04:10 PM 62.8°F17.1°C 54.8°F12.7°C 75% 10.0 mph NNE16.1 kmh NNE 10.0 mph16.1 kmh 30.00 in1015.9 mb 0.00 in0.0 mm 0.00 in0.0 mm 0.00 in0.0 mm
04:15 PM 62.2°F16.8°C 54.9°F12.7°C 77% 10.0 mph NNE16.1 kmh NNE 11.0 mph17.7 kmh 29.99 in1015.6 mb 0.00 in0.0 mm 0.00 in0.0 mm 0.00 in0.0 mm
04:20 PM 61.8°F16.6°C 55.2°F12.9°C 79% 9.0 mph NNE14.5 kmh NNE 11.0 mph17.7 kmh 30.00 in1015.9 mb 0.00 in0.0 mm 0.00 in0.0 mm 0.00 in0.0 mm
04:25 PM 61.5°F16.4°C 55.3°F12.9°C 80% 9.0 mph NNE14.5 kmh NNE 11.0 mph17.7 kmh 29.99 in1015.6 mb 0.00 in0.0 mm 0.00 in0.0 mm 0.00 in0.0 mm
04:30 PM 61.6°F16.4°C 55.4°F13.0°C 80% 10.0 mph NNE16.1 kmh NNE 11.0 mph17.7 kmh 29.99 in1015.6 mb 0.00 in0.0 mm 0.00 in0.0 mm 0.00 in0.0 mm
04:35 PM 61.6°F16.4°C 55.4°F13.0°C 80% 11.0 mph NNE17.7 kmh NNE 11.0 mph17.7 kmh 29.99 in1015.6 mb 0.00 in0.0 mm 0.00 in0.0 mm 0.00 in0.0 mm
04:40 PM 61.6°F16.4°C 55.4°F13.0°C 80% 10.0 mph NNE16.1 kmh NNE 11.0 mph17.7 kmh 29.99 in1015.6 mb 0.00 in0.0 mm 0.00 in0.0 mm 0.00 in0.0 mm
04:45 PM 61.4°F16.3°C 55.2°F12.9°C 80% 13.0 mph NNE20.9 kmh NNE 13.0 mph20.9 kmh 29.99 in1015.6 mb 0.00 in0.0 mm 0.00 in0.0 mm 0.00 in0.0 mm
04:50 PM 61.4°F16.3°C 54.8°F12.7°C 79% 11.0 mph NNE17.7 kmh NNE 14.0 mph22.5 kmh 29.99 in1015.6 mb 0.00 in0.0 mm 0.00 in0.0 mm 0.00 in0.0 mm
04:55 PM 61.7°F16.5°C 54.4°F12.4°C 77% 15.0 mph NNE24.1 kmh NNE 15.0 mph24.1 kmh 29.99 in1015.6 mb 0.00 in0.0 mm 0.00 in0.0 mm 0.00 in0.0 mm
05:00 PM 62.1°F16.7°C 54.5°F12.5°C 76% 14.0 mph NNE22.5 kmh NNE 15.0 mph24.1 kmh 29.99 in1015.6 mb 0.00 in0.0 mm 0.00 in0.0 mm 0.00 in0.0 mm
05:05 PM 61.7°F16.5°C 54.8°F12.7°C 78% 12.0 mph NNE19.3 kmh NNE 15.0 mph24.1 kmh 29.99 in1015.6 mb 0.00 in0.0 mm 0.00 in0.0 mm 0.00 in0.0 mm
05:10 PM 61.8°F16.6°C 54.9°F12.7°C 78% 11.0 mph NNE17.7 kmh NNE 13.0 mph20.9 kmh 29.99 in1015.6 mb 0.00 in0.0 mm 0.00 in0.0 mm 0.00 in0.0 mm
05:15 PM 61.9°F16.6°C 55.3°F12.9°C 79% 11.0 mph NNE17.7 kmh NNE 15.0 mph24.1 kmh 29.99 in1015.6 mb 0.00 in0.0 mm 0.00 in0.0 mm 0.00 in0.0 mm
05:20 PM 61.8°F16.6°C 54.9°F12.7°C 78% 13.0 mph NNE20.9 kmh NNE 15.0 mph24.1 kmh 29.99 in1015.6 mb 0.00 in0.0 mm 0.00 in0.0 mm 0.00 in0.0 mm
05:25 PM 62.0°F16.7°C 54.0°F12.2°C 75% 14.0 mph N22.5 kmh N 15.0 mph24.1 kmh 29.99 in1015.6 mb 0.00 in0.0 mm 0.00 in0.0 mm 0.00 in0.0 mm
05:30 PM 62.3°F16.8°C 53.9°F12.2°C 74% 13.0 mph N20.9 kmh N 17.0 mph27.4 kmh 29.99 in1015.6 mb 0.00 in0.0 mm 0.00 in0.0 mm 0.00 in0.0 mm
05:35 PM 62.5°F16.9°C 53.7°F12.1°C 73% 12.0 mph N19.3 kmh N 18.0 mph29.0 kmh 29.99 in1015.6 mb 0.00 in0.0 mm 0.00 in0.0 mm 0.00 in0.0 mm
05:40 PM 62.4°F16.9°C 52.9°F11.6°C 71% 16.0 mph N25.7 kmh N 18.0 mph29.0 kmh 29.99 in1015.6 mb 0.00 in0.0 mm 0.00 in0.0 mm 0.00 in0.0 mm
05:45 PM 62.3°F16.8°C 53.6°F12.0°C 73% 13.0 mph N20.9 kmh N 18.0 mph29.0 kmh 29.99 in1015.6 mb 0.00 in0.0 mm 0.00 in0.0 mm 0.00 in0.0 mm
05:50 PM 62.0°F16.7°C 52.9°F11.6°C 72% 15.0 mph N24.1 kmh N 18.0 mph29.0 kmh 30.00 in1015.9 mb 0.00 in0.0 mm 0.00 in0.0 mm 0.00 in0.0 mm
05:55 PM 61.8°F16.6°C 53.1°F11.7°C 73% 13.0 mph N20.9 kmh N 14.0 mph22.5 kmh 30.00 in1015.9 mb 0.00 in0.0 mm 0.00 in0.0 mm 0.00 in0.0 mm
06:00 PM 61.5°F16.4°C 52.8°F11.6°C 73% 14.0 mph N22.5 kmh N 16.0 mph25.7 kmh 30.00 in1015.9 mb 0.00 in0.0 mm 0.00 in0.0 mm 0.00 in0.0 mm
06:05 PM 61.4°F16.3°C 52.7°F11.5°C 73% 15.0 mph NNE24.1 kmh NNE 17.0 mph27.4 kmh 30.00 in1015.9 mb 0.00 in0.0 mm 0.00 in0.0 mm 0.00 in0.0 mm
06:10 PM 61.1°F16.2°C 52.8°F11.6°C 74% 13.0 mph NNE20.9 kmh NNE 15.0 mph24.1 kmh 30.00 in1015.9 mb 0.00 in0.0 mm 0.00 in0.0 mm 0.00 in0.0 mm
06:15 PM 60.9°F16.1°C 51.8°F11.0°C 72% 17.0 mph N27.4 kmh N 19.0 mph30.6 kmh 30.00 in1015.9 mb 0.00 in0.0 mm 0.00 in0.0 mm 0.00 in0.0 mm
06:20 PM 60.9°F16.1°C 52.2°F11.2°C 73% 16.0 mph NNE25.7 kmh NNE 19.0 mph30.6 kmh 30.00 in1015.9 mb 0.00 in0.0 mm 0.00 in0.0 mm 0.00 in0.0 mm
06:25 PM 60.8°F16.0°C 51.7°F10.9°C 72% 14.0 mph N22.5 kmh N 16.0 mph25.7 kmh 30.00 in1015.9 mb 0.00 in0.0 mm 0.00 in0.0 mm 0.00 in0.0 mm
06:30 PM 60.7°F15.9°C 52.0°F11.1°C 73% 14.0 mph N22.5 kmh N 17.0 mph27.4 kmh 30.00 in1015.9 mb 0.00 in0.0 mm 0.00 in0.0 mm 0.00 in0.0 mm
06:35 PM 60.5°F15.8°C 51.8°F11.0°C 73% 14.0 mph N22.5 kmh N 18.0 mph29.0 kmh 30.00 in1015.9 mb 0.00 in0.0 mm 0.00 in0.0 mm 0.00 in0.0 mm
06:40 PM 60.3°F15.7°C 51.6°F10.9°C 73% 20.0 mph N32.2 kmh N 20.0 mph32.2 kmh 30.01 in1016.3 mb 0.00 in0.0 mm 0.00 in0.0 mm 0.00 in0.0 mm
06:45 PM 60.2°F15.7°C 51.9°F11.1°C 74% 14.0 mph N22.5 kmh N 21.0 mph33.8 kmh 30.01 in1016.3 mb 0.00 in0.0 mm 0.00 in0.0 mm 0.00 in0.0 mm
06:50 PM 59.9°F15.5°C 51.2°F10.7°C 73% 15.0 mph N24.1 kmh N 21.0 mph33.8 kmh 30.01 in1016.3 mb 0.00 in0.0 mm 0.00 in0.0 mm 0.00 in0.0 mm
06:55 PM 59.7°F15.4°C 51.4°F10.8°C 74% 17.0 mph NNE27.4 kmh NNE 19.0 mph30.6 kmh 30.01 in1016.3 mb 0.00 in0.0 mm 0.00 in0.0 mm 0.00 in0.0 mm
07:00 PM 59.6°F15.3°C 50.6°F10.3°C 72% 20.0 mph N32.2 kmh N 20.0 mph32.2 kmh 30.01 in1016.3 mb 0.00 in0.0 mm 0.00 in0.0 mm 0.00 in0.0 mm
07:05 PM 59.6°F15.3°C 50.6°F10.3°C 72% 16.0 mph N25.7 kmh N 20.0 mph32.2 kmh 30.01 in1016.3 mb 0.00 in0.0 mm 0.00 in0.0 mm 0.00 in0.0 mm
07:10 PM 59.4°F15.2°C 51.1°F10.6°C 74% 15.0 mph N24.1 kmh N 15.0 mph24.1 kmh 30.01 in1016.3 mb 0.00 in0.0 mm 0.00 in0.0 mm 0.00 in0.0 mm
07:15 PM 59.2°F15.1°C 50.9°F10.5°C 74% 17.0 mph N27.4 kmh N 19.0 mph30.6 kmh 30.02 in1016.6 mb 0.00 in0.0 mm 0.00 in0.0 mm 0.00 in0.0 mm
07:20 PM 58.9°F14.9°C 51.7°F10.9°C 77% 16.0 mph N25.7 kmh N 19.0 mph30.6 kmh 30.01 in1016.3 mb 0.00 in0.0 mm 0.00 in0.0 mm 0.00 in0.0 mm
07:25 PM 58.8°F14.9°C 51.6°F10.9°C 77% 16.0 mph NNE25.7 kmh NNE 17.0 mph27.4 kmh 30.01 in1016.3 mb 0.00 in0.0 mm 0.00 in0.0 mm 0.00 in0.0 mm
07:30 PM 58.6°F14.8°C 52.1°F11.2°C 79% 14.0 mph NNE22.5 kmh NNE 17.0 mph27.4 kmh 30.02 in1016.6 mb 0.00 in0.0 mm 0.00 in0.0 mm 0.00 in0.0 mm
07:35 PM 58.3°F14.6°C 52.2°F11.2°C 80% 17.0 mph NNE27.4 kmh NNE 17.0 mph27.4 kmh 30.02 in1016.6 mb 0.00 in0.0 mm 0.00 in0.0 mm 0.00 in0.0 mm
07:40 PM 58.3°F14.6°C 51.8°F11.0°C 79% 15.0 mph NNE24.1 kmh NNE 17.0 mph27.4 kmh 30.02 in1016.6 mb 0.00 in0.0 mm 0.00 in0.0 mm 0.00 in0.0 mm
07:45 PM 58.2°F14.6°C 51.7°F10.9°C 79% 14.0 mph NNE22.5 kmh NNE 18.0 mph29.0 kmh 30.02 in1016.6 mb 0.00 in0.0 mm 0.00 in0.0 mm 0.00 in0.0 mm
07:50 PM 58.1°F14.5°C 52.3°F11.3°C 81% 16.0 mph NNE25.7 kmh NNE 18.0 mph29.0 kmh 30.02 in1016.6 mb 0.00 in0.0 mm 0.00 in0.0 mm 0.00 in0.0 mm
07:55 PM 58.1°F14.5°C 52.6°F11.4°C 82% 15.0 mph NNE24.1 kmh NNE 16.0 mph25.7 kmh 30.02 in1016.6 mb 0.00 in0.0 mm 0.00 in0.0 mm 0.00 in0.0 mm
08:00 PM 57.9°F14.4°C 52.5°F11.4°C 82% 15.0 mph NNE24.1 kmh NNE 17.0 mph27.4 kmh 30.02 in1016.6 mb 0.00 in0.0 mm 0.00 in0.0 mm 0.00 in0.0 mm
08:05 PM 57.8°F14.3°C 52.4°F11.3°C 82% 18.0 mph NNE29.0 kmh NNE 18.0 mph29.0 kmh 30.03 in1016.9 mb 0.00 in0.0 mm 0.00 in0.0 mm 0.00 in0.0 mm
08:10 PM 57.7°F14.3°C 51.9°F11.1°C 81% 19.0 mph NNE30.6 kmh NNE 21.0 mph33.8 kmh 30.02 in1016.6 mb 0.00 in0.0 mm 0.00 in0.0 mm 0.00 in0.0 mm
08:15 PM 57.6°F14.2°C 52.2°F11.2°C 82% 18.0 mph NNE29.0 kmh NNE 21.0 mph33.8 kmh 30.03 in1016.9 mb 0.00 in0.0 mm 0.00 in0.0 mm 0.00 in0.0 mm
08:20 PM 57.5°F14.2°C 52.1°F11.2°C 82% 21.0 mph NNE33.8 kmh NNE 21.0 mph33.8 kmh 30.02 in1016.6 mb 0.00 in0.0 mm 0.00 in0.0 mm 0.00 in0.0 mm
08:25 PM 57.3°F14.1°C 51.9°F11.1°C 82% 17.0 mph NNE27.4 kmh NNE 18.0 mph29.0 kmh 30.02 in1016.6 mb 0.00 in0.0 mm 0.00 in0.0 mm 0.00 in0.0 mm
08:30 PM 57.2°F14.0°C 52.1°F11.2°C 83% 15.0 mph NNE24.1 kmh NNE 21.0 mph33.8 kmh 30.03 in1016.9 mb 0.00 in0.0 mm 0.00 in0.0 mm 0.00 in0.0 mm
08:35 PM 57.1°F13.9°C 52.0°F11.1°C 83% 19.0 mph NNE30.6 kmh NNE 21.0 mph33.8 kmh 30.02 in1016.6 mb 0.00 in0.0 mm 0.00 in0.0 mm 0.00 in0.0 mm
08:40 PM 56.9°F13.8°C 51.8°F11.0°C 83% 16.0 mph NNE25.7 kmh NNE 19.0 mph30.6 kmh 30.02 in1016.6 mb 0.00 in0.0 mm 0.00 in0.0 mm 0.00 in0.0 mm
08:45 PM 56.8°F13.8°C 52.0°F11.1°C 84% 16.0 mph NNE25.7 kmh NNE 21.0 mph33.8 kmh 30.03 in1016.9 mb 0.00 in0.0 mm 0.00 in0.0 mm 0.00 in0.0 mm
08:50 PM 56.7°F13.7°C 52.3°F11.3°C 85% 16.0 mph NNE25.7 kmh NNE 21.0 mph33.8 kmh 30.03 in1016.9 mb 0.00 in0.0 mm 0.00 in0.0 mm 0.00 in0.0 mm
08:55 PM 56.6°F13.7°C 52.5°F11.4°C 86% 17.0 mph NNE27.4 kmh NNE 17.0 mph27.4 kmh 30.03 in1016.9 mb 0.00 in0.0 mm 0.00 in0.0 mm 0.00 in0.0 mm
09:00 PM 56.5°F13.6°C 52.4°F11.3°C 86% 18.0 mph NNE29.0 kmh NNE 21.0 mph33.8 kmh 30.03 in1016.9 mb 0.00 in0.0 mm 0.00 in0.0 mm 0.00 in0.0 mm
09:05 PM 56.5°F13.6°C 52.7°F11.5°C 87% 17.0 mph NNE27.4 kmh NNE 21.0 mph33.8 kmh 30.03 in1016.9 mb 0.00 in0.0 mm 0.00 in0.0 mm 0.00 in0.0 mm
09:10 PM 56.4°F13.6°C 52.6°F11.4°C 87% 14.0 mph NNE22.5 kmh NNE 15.0 mph24.1 kmh 30.03 in1016.9 mb 0.00 in0.0 mm 0.00 in0.0 mm 0.00 in0.0 mm
09:15 PM 56.4°F13.6°C 52.6°F11.4°C 87% 17.0 mph NE27.4 kmh NE 20.0 mph32.2 kmh 30.03 in1016.9 mb 0.00 in0.0 mm 0.00 in0.0 mm 0.00 in0.0 mm
09:20 PM 56.4°F13.6°C 52.6°F11.4°C 87% 18.0 mph NE29.0 kmh NE 21.0 mph33.8 kmh 30.03 in1016.9 mb 0.00 in0.0 mm 0.00 in0.0 mm 0.00 in0.0 mm
09:25 PM 56.4°F13.6°C 52.9°F11.6°C 88% 15.0 mph NE24.1 kmh NE 16.0 mph25.7 kmh 30.03 in1016.9 mb 0.00 in0.0 mm 0.00 in0.0 mm 0.00 in0.0 mm
09:30 PM 56.3°F13.5°C 52.8°F11.6°C 88% 18.0 mph NE29.0 kmh NE 19.0 mph30.6 kmh 30.03 in1016.9 mb 0.00 in0.0 mm 0.00 in0.0 mm 0.00 in0.0 mm
09:35 PM 56.3°F13.5°C 52.8°F11.6°C 88% 16.0 mph NNE25.7 kmh NNE 20.0 mph32.2 kmh 30.02 in1016.6 mb 0.00 in0.0 mm 0.00 in0.0 mm 0.00 in0.0 mm
09:40 PM 56.2°F13.4°C 52.7°F11.5°C 88% 17.0 mph NNE27.4 kmh NNE 17.0 mph27.4 kmh 30.02 in1016.6 mb 0.00 in0.0 mm 0.00 in0.0 mm 0.00 in0.0 mm
09:45 PM 56.2°F13.4°C 52.7°F11.5°C 88% 18.0 mph NE29.0 kmh NE 19.0 mph30.6 kmh 30.02 in1016.6 mb 0.00 in0.0 mm 0.00 in0.0 mm 0.00 in0.0 mm
09:50 PM 56.2°F13.4°C 52.7°F11.5°C 88% 15.0 mph NE24.1 kmh NE 19.0 mph30.6 kmh 30.02 in1016.6 mb 0.00 in0.0 mm 0.00 in0.0 mm 0.00 in0.0 mm
09:55 PM 56.3°F13.5°C 53.1°F11.7°C 89% 14.0 mph NE22.5 kmh NE 15.0 mph24.1 kmh 30.02 in1016.6 mb 0.00 in0.0 mm 0.00 in0.0 mm 0.00 in0.0 mm
10:00 PM 56.3°F13.5°C 53.1°F11.7°C 89% 15.0 mph NE24.1 kmh NE 18.0 mph29.0 kmh 30.02 in1016.6 mb 0.00 in0.0 mm 0.00 in0.0 mm 0.00 in0.0 mm
10:05 PM 56.3°F13.5°C 53.1°F11.7°C 89% 14.0 mph NNE22.5 kmh NNE 18.0 mph29.0 kmh 30.02 in1016.6 mb 0.00 in0.0 mm 0.00 in0.0 mm 0.00 in0.0 mm
10:10 PM 56.3°F13.5°C 53.4°F11.9°C 90% 13.0 mph NE20.9 kmh NE 15.0 mph24.1 kmh 30.02 in1016.6 mb 0.00 in0.0 mm 0.00 in0.0 mm 0.00 in0.0 mm
10:15 PM 56.3°F13.5°C 53.4°F11.9°C 90% 13.0 mph NE20.9 kmh NE 16.0 mph25.7 kmh 30.02 in1016.6 mb 0.00 in0.0 mm 0.00 in0.0 mm 0.00 in0.0 mm
10:20 PM 56.2°F13.4°C 53.3°F11.8°C 90% 14.0 mph NE22.5 kmh NE 17.0 mph27.4 kmh 30.02 in1016.6 mb 0.00 in0.0 mm 0.00 in0.0 mm 0.00 in0.0 mm
10:25 PM 56.3°F13.5°C 53.4°F11.9°C 90% 13.0 mph NE20.9 kmh NE 16.0 mph25.7 kmh 30.02 in1016.6 mb 0.00 in0.0 mm 0.00 in0.0 mm 0.00 in0.0 mm
10:30 PM 56.4°F13.6°C 53.5°F11.9°C 90% 14.0 mph NE22.5 kmh NE 18.0 mph29.0 kmh 30.02 in1016.6 mb 0.00 in0.0 mm 0.00 in0.0 mm 0.00 in0.0 mm
10:35 PM 56.4°F13.6°C 53.5°F11.9°C 90% 14.0 mph NNE22.5 kmh NNE 18.0 mph29.0 kmh 30.02 in1016.6 mb 0.00 in0.0 mm 0.00 in0.0 mm 0.00 in0.0 mm
10:40 PM 56.3°F13.5°C 53.4°F11.9°C 90% 17.0 mph NNE27.4 kmh NNE 17.0 mph27.4 kmh 30.02 in1016.6 mb 0.00 in0.0 mm 0.00 in0.0 mm 0.00 in0.0 mm
10:45 PM 56.4°F13.6°C 53.5°F11.9°C 90% 15.0 mph NE24.1 kmh NE 17.0 mph27.4 kmh 30.02 in1016.6 mb 0.00 in0.0 mm 0.00 in0.0 mm 0.00 in0.0 mm
10:50 PM 56.4°F13.6°C 53.5°F11.9°C 90% 14.0 mph NE22.5 kmh NE 17.0 mph27.4 kmh 30.02 in1016.6 mb 0.00 in0.0 mm 0.00 in0.0 mm 0.00 in0.0 mm
10:55 PM 56.4°F13.6°C 53.5°F11.9°C 90% 13.0 mph NE20.9 kmh NE 13.0 mph20.9 kmh 30.01 in1016.3 mb 0.00 in0.0 mm 0.00 in0.0 mm 0.00 in0.0 mm
11:00 PM 56.5°F13.6°C 53.6°F12.0°C 90% 16.0 mph NE25.7 kmh NE 17.0 mph27.4 kmh 30.01 in1016.3 mb 0.00 in0.0 mm 0.00 in0.0 mm 0.00 in0.0 mm
11:05 PM 56.4°F13.6°C 53.5°F11.9°C 90% 12.0 mph NNE19.3 kmh NNE 17.0 mph27.4 kmh 30.01 in1016.3 mb 0.00 in0.0 mm 0.00 in0.0 mm 0.00 in0.0 mm
11:10 PM 56.4°F13.6°C 53.5°F11.9°C 90% 12.0 mph NE19.3 kmh NE 14.0 mph22.5 kmh 30.01 in1016.3 mb 0.00 in0.0 mm 0.00 in0.0 mm 0.00 in0.0 mm
11:15 PM 56.4°F13.6°C 53.2°F11.8°C 89% 13.0 mph NE20.9 kmh NE 16.0 mph25.7 kmh 30.01 in1016.3 mb 0.00 in0.0 mm 0.00 in0.0 mm 0.00 in0.0 mm
11:20 PM 56.6°F13.7°C 53.4°F11.9°C 89% 14.0 mph NE22.5 kmh NE 17.0 mph27.4 kmh 30.01 in1016.3 mb 0.00 in0.0 mm 0.00 in0.0 mm 0.00 in0.0 mm
11:25 PM 56.6°F13.7°C 53.4°F11.9°C 89% 13.0 mph NE20.9 kmh NE 13.0 mph20.9 kmh 30.02 in1016.6 mb 0.00 in0.0 mm 0.00 in0.0 mm 0.00 in0.0 mm
11:30 PM 56.6°F13.7°C 53.4°F11.9°C 89% 13.0 mph NE20.9 kmh NE 15.0 mph24.1 kmh 30.02 in1016.6 mb 0.00 in0.0 mm 0.00 in0.0 mm 0.00 in0.0 mm
11:35 PM 56.6°F13.7°C 53.4°F11.9°C 89% 13.0 mph NE20.9 kmh NE 15.0 mph24.1 kmh 30.02 in1016.6 mb 0.00 in0.0 mm 0.00 in0.0 mm 0.00 in0.0 mm
11:40 PM 56.7°F13.7°C 53.8°F12.1°C 90% 11.0 mph NE17.7 kmh NE 14.0 mph22.5 kmh 30.03 in1016.9 mb 0.00 in0.0 mm 0.00 in0.0 mm 0.00 in0.0 mm
11:45 PM 56.7°F13.7°C 53.5°F11.9°C 89% 12.0 mph NE19.3 kmh NE 15.0 mph24.1 kmh 30.03 in1016.9 mb 0.00 in0.0 mm 0.00 in0.0 mm 0.00 in0.0 mm
11:50 PM 56.7°F13.7°C 53.5°F11.9°C 89% 13.0 mph NNE20.9 kmh NNE 15.0 mph24.1 kmh 30.02 in1016.6 mb 0.00 in0.0 mm 0.00 in0.0 mm 0.00 in0.0 mm
11:55 PM 56.7°F13.7°C 53.8°F12.1°C 90% 12.0 mph NE19.3 kmh NE 13.0 mph20.9 kmh 30.02 in1016.6 mb 0.00 in0.0 mm 0.00 in0.0 mm 0.00 in0.0 mm